Time;durP1;ratioP1;P1;durP2;ratioP2;P2;SDS_P1;SDS_P2;PMS_P1;PMS_P2;Temp;Humidity;BMP_temperature;BMP_pressure;BME280_temperature;BME280_humidity;BME280_pressure;Samples;Min_cycle;Max_cycle;Signal;HPM_P1;HPM_P2
2021/11/29 00:00:01;;;;;;;9.30;4.60;;;2.10;99.90;;;;;;5100241;28;20048;-70
2021/11/29 00:02:28;;;;;;;12.07;4.97;;;2.00;99.90;;;;;;5100240;28;20054;-69
2021/11/29 00:04:56;;;;;;;9.93;5.05;;;2.00;99.90;;;;;;5082265;28;20091;-70
2021/11/29 00:07:23;;;;;;;7.82;4.85;;;2.00;99.90;;;;;;5100423;28;20091;-69
2021/11/29 00:09:51;;;;;;;11.35;4.50;;;2.00;99.90;;;;;;5101052;28;20371;-70
2021/11/29 00:12:18;;;;;;;13.45;6.15;;;2.00;99.90;;;;;;5100036;28;20028;-70
2021/11/29 00:14:46;;;;;;;6.68;4.35;;;1.90;99.90;;;;;;5099910;28;20016;-70
2021/11/29 00:17:13;;;;;;;8.43;4.60;;;2.00;99.90;;;;;;5081182;28;20020;-70
2021/11/29 00:19:41;;;;;;;10.88;4.63;;;2.00;99.90;;;;;;5099151;28;20024;-69
2021/11/29 00:22:09;;;;;;;12.50;4.93;;;1.90;99.90;;;;;;5098986;28;20019;-70
2021/11/29 00:24:36;;;;;;;6.88;3.35;;;1.90;99.90;;;;;;5098931;28;20024;-70
2021/11/29 00:27:04;;;;;;;9.13;4.82;;;1.90;99.90;;;;;;5098956;28;20020;-70
2021/11/29 00:29:31;;;;;;;8.63;4.30;;;2.00;99.90;;;;;;5099403;28;20016;-70
2021/11/29 00:31:59;;;;;;;6.47;3.72;;;2.00;99.90;;;;;;5098872;28;20069;-69
2021/11/29 00:34:26;;;;;;;7.40;4.63;;;2.00;99.90;;;;;;5081731;28;20329;-69
2021/11/29 00:36:53;;;;;;;9.73;4.88;;;2.00;99.90;;;;;;5099641;28;20024;-70
2021/11/29 00:39:21;;;;;;;7.13;4.18;;;2.00;99.90;;;;;;5081881;28;20206;-70
2021/11/29 00:41:49;;;;;;;8.10;5.40;;;2.00;99.90;;;;;;5081630;28;20328;-70
2021/11/29 00:44:16;;;;;;;6.93;3.67;;;1.90;99.90;;;;;;5081584;28;20486;-70
2021/11/29 00:46:44;;;;;;;9.90;5.57;;;2.00;99.90;;;;;;5081527;28;20031;-70
2021/11/29 00:49:11;;;;;;;12.85;5.45;;;2.00;99.90;;;;;;5099700;28;20055;-69
2021/11/29 00:51:39;;;;;;;10.77;6.05;;;2.00;99.90;;;;;;5099445;28;20051;-70
2021/11/29 00:54:06;;;;;;;12.70;5.63;;;2.00;99.90;;;;;;5098331;28;20412;-70
2021/11/29 00:56:33;;;;;;;13.35;5.65;;;2.00;99.90;;;;;;5098980;28;20035;-69
2021/11/29 00:59:01;;;;;;;11.48;6.00;;;2.00;99.90;;;;;;5098399;28;20058;-69
2021/11/29 01:01:29;;;;;;;9.10;5.38;;;2.00;99.90;;;;;;5098877;28;20027;-70
2021/11/29 01:03:56;;;;;;;7.70;3.88;;;2.00;99.90;;;;;;5098742;28;20020;-69
2021/11/29 01:06:24;;;;;;;8.95;4.68;;;2.00;99.90;;;;;;5098130;28;20065;-70
2021/11/29 01:08:51;;;;;;;8.32;5.20;;;2.00;99.90;;;;;;5098904;28;20020;-70
2021/11/29 01:11:18;;;;;;;9.27;4.95;;;1.90;99.90;;;;;;5098655;28;20020;-70
2021/11/29 01:13:46;;;;;;;8.82;5.10;;;1.90;99.90;;;;;;5099013;28;20031;-69
2021/11/29 01:16:13;;;;;;;10.82;4.68;;;1.90;99.90;;;;;;5099184;28;20016;-70
2021/11/29 01:18:40;;;;;;;8.18;4.75;;;1.80;99.90;;;;;;5098820;28;20020;-70
2021/11/29 01:21:07;;;;;;;8.05;5.03;;;1.70;99.90;;;;;;5080793;28;20024;-70
2021/11/29 01:23:35;;;;;;;11.77;6.03;;;1.70;99.90;;;;;;5098997;28;20355;-70
2021/11/29 01:26:02;;;;;;;10.63;5.40;;;1.70;99.90;;;;;;5099291;28;20028;-70
2021/11/29 01:28:29;;;;;;;11.38;6.10;;;1.70;99.90;;;;;;5098757;28;20023;-70
2021/11/29 01:30:57;;;;;;;11.75;6.20;;;1.70;99.90;;;;;;5080090;28;20416;-70
2021/11/29 01:33:25;;;;;;;11.70;5.65;;;1.70;99.90;;;;;;5098260;28;20034;-70
2021/11/29 01:35:53;;;;;;;12.32;5.65;;;1.70;99.90;;;;;;5098158;28;20408;-70
2021/11/29 01:38:20;;;;;;;10.65;5.47;;;1.70;99.90;;;;;;5098059;28;20052;-70
2021/11/29 01:40:48;;;;;;;9.25;5.55;;;1.70;99.90;;;;;;5097519;28;20059;-70
2021/11/29 01:43:18;;;;;;;9.50;4.35;;;1.70;99.90;;;;;;5098105;28;20090;-70
2021/11/29 01:45:52;;;;;;;9.00;4.88;;;1.60;99.90;;;;;;5097645;28;20024;-70
2021/11/29 01:48:20;;;;;;;9.25;5.07;;;1.60;99.90;;;;;;5096950;28;20027;-70
2021/11/29 01:50:51;;;;;;;9.35;4.97;;;1.60;99.90;;;;;;5097512;28;20020;-70
2021/11/29 01:53:22;;;;;;;8.35;4.72;;;1.50;99.90;;;;;;5098309;28;20020;-70
2021/11/29 01:55:51;;;;;;;10.75;5.20;;;1.50;99.90;;;;;;5098139;28;20028;-70
2021/11/29 01:58:18;;;;;;;9.98;4.80;;;1.50;99.90;;;;;;5098356;28;20051;-70
2021/11/29 02:00:51;;;;;;;8.75;4.95;;;1.50;99.90;;;;;;5078371;28;20044;-70
2021/11/29 02:03:18;;;;;;;9.55;4.80;;;1.50;99.90;;;;;;5060136;28;20409;-70
2021/11/29 02:05:46;;;;;;;7.18;3.75;;;1.50;99.90;;;;;;5077753;28;20016;-70
2021/11/29 02:08:13;;;;;;;10.00;4.70;;;1.50;99.90;;;;;;5077574;28;20084;-70
2021/11/29 02:10:41;;;;;;;9.80;4.93;;;1.60;99.90;;;;;;5077627;28;20016;-70
2021/11/29 02:13:09;;;;;;;5.82;3.80;;;1.60;99.90;;;;;;5077455;28;20397;-70
2021/11/29 02:15:40;;;;;;;6.20;3.75;;;1.60;99.90;;;;;;5058960;28;20098;-70
2021/11/29 02:18:08;;;;;;;6.70;4.40;;;1.60;99.90;;;;;;5058919;28;20430;-70
2021/11/29 02:20:37;;;;;;;8.98;4.20;;;1.60;99.90;;;;;;5076683;28;20309;-70
2021/11/29 02:23:06;;;;;;;10.27;3.72;;;1.60;99.90;;;;;;5058718;28;20028;-70
2021/11/29 02:25:34;;;;;;;8.13;4.03;;;1.60;99.90;;;;;;5076342;28;20063;-70
2021/11/29 02:28:01;;;;;;;6.95;3.40;;;1.60;99.90;;;;;;5076981;28;20017;-70
2021/11/29 02:30:28;;;;;;;6.15;3.35;;;1.50;99.90;;;;;;5076599;28;20365;-70
2021/11/29 02:32:56;;;;;;;5.75;3.42;;;1.50;99.90;;;;;;5059542;28;20052;-70
2021/11/29 02:35:23;;;;;;;5.32;3.15;;;1.40;99.90;;;;;;5077363;28;20482;-70
2021/11/29 02:37:51;;;;;;;5.70;3.55;;;1.40;99.90;;;;;;5076179;28;20028;-70
2021/11/29 02:40:19;;;;;;;7.25;3.50;;;1.40;99.90;;;;;;5077833;28;20029;-70
2021/11/29 02:42:46;;;;;;;4.72;2.15;;;1.40;99.90;;;;;;5077874;28;20388;-70
2021/11/29 02:45:13;;;;;;;8.20;3.58;;;1.40;99.90;;;;;;5059532;28;20028;-70
2021/11/29 02:47:41;;;;;;;7.43;4.20;;;1.40;99.90;;;;;;5077149;28;20013;-70
2021/11/29 02:50:08;;;;;;;9.88;4.47;;;1.40;99.90;;;;;;5076982;28;20013;-70
2021/11/29 02:52:36;;;;;;;7.68;3.95;;;1.40;99.90;;;;;;5076139;28;20029;-70
2021/11/29 02:55:04;;;;;;;11.73;4.10;;;1.30;99.90;;;;;;5076841;28;20066;-70
2021/11/29 02:57:32;;;;;;;8.32;3.72;;;1.20;99.90;;;;;;5076804;28;20503;-70
2021/11/29 02:59:59;;;;;;;6.20;3.47;;;1.20;99.90;;;;;;5090137;28;20119;-70
2021/11/29 03:02:31;;;;;;;7.47;3.47;;;1.20;99.90;;;;;;5100032;28;20020;-70
2021/11/29 03:05:01;;;;;;;7.38;3.45;;;1.20;99.90;;;;;;5100576;28;20073;-70
2021/11/29 03:07:28;;;;;;;9.93;4.28;;;1.20;99.90;;;;;;5100697;28;20047;-70
2021/11/29 03:09:57;;;;;;;6.68;4.22;;;1.20;99.90;;;;;;5099974;28;20363;-70
2021/11/29 03:12:25;;;;;;;13.32;3.72;;;1.20;99.90;;;;;;5101901;28;20081;-70
2021/11/29 03:14:52;;;;;;;7.45;4.22;;;1.20;99.90;;;;;;5101337;28;20305;-70
2021/11/29 03:17:19;;;;;;;5.82;3.58;;;1.30;99.90;;;;;;5101284;28;20023;-70
2021/11/29 03:19:47;;;;;;;10.52;4.50;;;1.30;99.90;;;;;;5101952;28;20065;-70
2021/11/29 03:22:15;;;;;;;11.43;4.38;;;1.30;99.90;;;;;;5101614;28;20028;-70
2021/11/29 03:24:46;;;;;;;6.45;3.45;;;1.30;99.90;;;;;;5099915;28;20032;-70
2021/11/29 03:27:15;;;;;;;8.68;4.70;;;1.30;99.90;;;;;;5101009;28;20104;-70
2021/11/29 03:29:44;;;;;;;11.68;4.20;;;1.30;99.90;;;;;;5100175;28;20028;-70
2021/11/29 03:32:12;;;;;;;10.52;4.03;;;1.30;99.90;;;;;;5100620;28;20020;-70
2021/11/29 03:34:39;;;;;;;8.75;4.30;;;1.30;99.90;;;;;;5100084;28;20023;-70
2021/11/29 03:37:07;;;;;;;5.60;3.55;;;1.30;99.90;;;;;;5099821;28;20024;-70
2021/11/29 03:39:34;;;;;;;11.60;4.85;;;1.30;99.90;;;;;;5100102;28;20081;-70
2021/11/29 03:42:05;;;;;;;10.60;4.75;;;1.30;99.90;;;;;;5099901;28;20364;-70
2021/11/29 03:44:35;;;;;;;7.43;2.88;;;1.20;99.90;;;;;;5099765;28;20028;-70
2021/11/29 03:47:03;;;;;;;10.00;4.60;;;1.20;99.90;;;;;;5098599;28;20336;-70
2021/11/29 03:49:30;;;;;;;10.82;4.47;;;1.20;99.90;;;;;;5099544;28;20020;-70
2021/11/29 03:51:58;;;;;;;11.30;4.55;;;1.20;99.90;;;;;;5100521;28;20039;-70
2021/11/29 03:54:26;;;;;;;8.25;5.10;;;1.20;99.90;;;;;;5099452;28;20024;-70
2021/11/29 03:56:54;;;;;;;11.10;4.78;;;1.20;99.90;;;;;;5099478;28;20301;-70
2021/11/29 03:59:21;;;;;;;10.27;5.55;;;1.20;99.90;;;;;;5100460;28;20497;-70
2021/11/29 04:01:49;;;;;;;8.32;4.38;;;1.20;99.90;;;;;;5099312;28;20028;-70
2021/11/29 04:04:16;;;;;;;6.15;3.78;;;1.20;99.90;;;;;;5099910;28;20099;-70
2021/11/29 04:06:44;;;;;;;7.50;4.15;;;1.10;99.90;;;;;;5100300;28;20076;-70
2021/11/29 04:09:11;;;;;;;8.48;3.92;;;1.20;99.90;;;;;;5099950;28;20462;-70
2021/11/29 04:11:39;;;;;;;11.80;4.57;;;1.10;99.90;;;;;;5097812;28;20050;-70
2021/11/29 04:14:06;;;;;;;6.07;3.58;;;1.20;99.90;;;;;;5099812;28;20024;-70
2021/11/29 04:16:33;;;;;;;8.20;5.07;;;1.20;99.90;;;;;;5099800;28;20423;-70
2021/11/29 04:19:00;;;;;;;8.10;4.82;;;1.10;99.90;;;;;;5099927;28;20024;-70
2021/11/29 04:21:28;;;;;;;7.47;4.57;;;1.10;99.90;;;;;;5099354;28;20020;-70
2021/11/29 04:23:55;;;;;;;11.55;3.92;;;1.10;99.90;;;;;;5099080;28;20028;-70
2021/11/29 04:26:23;;;;;;;8.18;4.90;;;1.00;99.90;;;;;;5099299;28;20020;-70
2021/11/29 04:28:54;;;;;;;8.00;4.70;;;1.00;99.90;;;;;;5099764;28;20020;-70
2021/11/29 04:31:22;;;;;;;9.85;6.25;;;0.90;99.90;;;;;;5099606;28;20028;-70
2021/11/29 04:33:49;;;;;;;13.05;5.63;;;0.90;99.90;;;;;;5099911;28;20031;-70
2021/11/29 04:36:16;;;;;;;10.15;4.82;;;0.90;99.90;;;;;;5100161;28;20034;-70
2021/11/29 04:38:44;;;;;;;9.52;5.63;;;0.90;99.90;;;;;;5099946;28;20020;-70
2021/11/29 04:41:12;;;;;;;11.88;5.70;;;0.90;99.90;;;;;;5099687;28;20110;-70
2021/11/29 04:43:39;;;;;;;9.48;5.28;;;0.90;99.90;;;;;;5098461;28;20479;-70
2021/11/29 04:46:07;;;;;;;10.48;5.47;;;0.90;99.90;;;;;;5099599;28;20055;-70
2021/11/29 04:48:35;;;;;;;9.05;5.50;;;0.80;99.90;;;;;;5099115;28;20048;-70
2021/11/29 04:51:02;;;;;;;13.40;5.90;;;0.90;99.90;;;;;;5098738;28;20042;-70
2021/11/29 04:53:29;;;;;;;9.93;5.68;;;0.90;99.90;;;;;;5097351;28;20027;-70
2021/11/29 04:55:58;;;;;;;9.90;5.85;;;0.90;99.90;;;;;;5098737;28;20362;-70
2021/11/29 04:58:25;;;;;;;9.68;4.18;;;0.90;99.90;;;;;;5098286;28;20067;-70
2021/11/29 05:00:53;;;;;;;15.40;5.32;;;0.90;99.90;;;;;;5098312;28;20047;-70
2021/11/29 05:03:21;;;;;;;10.38;3.75;;;0.90;99.90;;;;;;5098256;28;20481;-70
2021/11/29 05:05:48;;;;;;;9.85;4.63;;;1.00;99.90;;;;;;5098289;28;20023;-70
2021/11/29 05:08:16;;;;;;;9.10;4.43;;;1.00;99.90;;;;;;5098831;28;20012;-70
2021/11/29 05:10:43;;;;;;;9.13;4.45;;;0.90;99.90;;;;;;5098801;28;20024;-70
2021/11/29 05:13:12;;;;;;;9.52;3.85;;;1.00;99.90;;;;;;5099581;28;20058;-70
2021/11/29 05:15:39;;;;;;;12.95;4.78;;;1.00;99.90;;;;;;5099296;28;20020;-70
2021/11/29 05:18:07;;;;;;;10.00;4.97;;;1.00;99.90;;;;;;5099466;28;20404;-70
2021/11/29 05:20:34;;;;;;;9.27;3.00;;;1.00;99.90;;;;;;5099177;28;20394;-70
2021/11/29 05:23:02;;;;;;;5.78;4.00;;;1.00;99.90;;;;;;5098761;28;20024;-70
2021/11/29 05:25:29;;;;;;;9.38;4.97;;;1.00;99.90;;;;;;5098538;28;20022;-70
2021/11/29 05:27:56;;;;;;;9.70;3.65;;;1.00;99.90;;;;;;5099208;28;20094;-70
2021/11/29 05:30:24;;;;;;;6.88;3.47;;;1.00;99.90;;;;;;5097824;28;20099;-70
2021/11/29 05:32:52;;;;;;;9.05;4.70;;;1.00;99.90;;;;;;5096633;28;20020;-70
2021/11/29 05:35:19;;;;;;;7.60;4.82;;;1.00;99.90;;;;;;5097794;28;20141;-70
2021/11/29 05:37:46;;;;;;;6.57;3.50;;;1.00;99.90;;;;;;5096501;28;20141;-70
2021/11/29 05:40:14;;;;;;;5.60;3.60;;;1.00;99.90;;;;;;5098138;28;20020;-70
2021/11/29 05:42:42;;;;;;;9.88;4.68;;;1.00;99.90;;;;;;5096365;28;20089;-70
2021/11/29 05:45:10;;;;;;;7.55;3.83;;;1.00;99.90;;;;;;5096586;28;20043;-70
2021/11/29 05:47:38;;;;;;;7.10;4.20;;;1.00;99.90;;;;;;5097474;28;20031;-70
2021/11/29 05:50:08;;;;;;;8.32;4.45;;;1.00;99.90;;;;;;5098777;28;20020;-70
2021/11/29 05:52:36;;;;;;;10.25;4.00;;;1.00;99.90;;;;;;5098263;28;20020;-70
2021/11/29 05:55:05;;;;;;;8.45;4.07;;;1.00;99.90;;;;;;5098415;28;20023;-70
2021/11/29 05:57:33;;;;;;;10.75;3.58;;;1.00;99.90;;;;;;5098231;28;20020;-70
2021/11/29 06:00:00;;;;;;;11.95;4.75;;;1.00;99.90;;;;;;5098054;28;20044;-70
2021/11/29 06:02:28;;;;;;;9.18;4.15;;;1.00;99.90;;;;;;5098633;28;20082;-70
2021/11/29 06:04:57;;;;;;;6.78;3.75;;;1.00;99.90;;;;;;5098235;28;20055;-70
2021/11/29 06:07:24;;;;;;;8.77;3.60;;;1.00;99.90;;;;;;5098070;28;20095;-70
2021/11/29 06:09:51;;;;;;;8.23;3.53;;;1.00;99.90;;;;;;5097452;28;20016;-70
2021/11/29 06:12:18;;;;;;;7.85;4.03;;;1.00;99.90;;;;;;5097101;28;20074;-70
2021/11/29 06:14:46;;;;;;;11.68;4.28;;;1.00;99.90;;;;;;5097183;28;20020;-70
2021/11/29 06:17:14;;;;;;;7.38;3.92;;;1.00;99.90;;;;;;5095700;28;20027;-70
2021/11/29 06:19:41;;;;;;;6.28;3.70;;;1.00;99.90;;;;;;5097534;28;20453;-70
2021/11/29 06:22:09;;;;;;;8.88;3.60;;;1.00;99.90;;;;;;5096802;28;20107;-70
2021/11/29 06:24:36;;;;;;;13.20;4.03;;;1.00;99.90;;;;;;5096699;28;20024;-70
2021/11/29 06:27:04;;;;;;;14.45;4.43;;;1.00;99.90;;;;;;5097300;28;20020;-70
2021/11/29 06:29:31;;;;;;;6.43;3.28;;;1.00;99.90;;;;;;5097707;28;20019;-70
2021/11/29 06:31:58;;;;;;;9.05;3.20;;;1.00;99.90;;;;;;5098072;28;20023;-69
2021/11/29 06:34:26;;;;;;;4.93;2.42;;;1.00;99.90;;;;;;5097301;28;20034;-70
2021/11/29 06:36:54;;;;;;;5.85;3.20;;;1.00;99.90;;;;;;5097455;28;20021;-70
2021/11/29 06:39:22;;;;;;;8.00;3.75;;;1.00;99.90;;;;;;5096369;28;20036;-70
2021/11/29 06:41:49;;;;;;;10.85;4.32;;;1.00;99.90;;;;;;5098113;28;20099;-70
2021/11/29 06:44:17;;;;;;;9.50;3.67;;;0.90;99.90;;;;;;5097405;28;20074;-70
2021/11/29 06:46:44;;;;;;;11.98;3.30;;;0.90;99.90;;;;;;5095602;28;20079;-69
2021/11/29 06:49:11;;;;;;;6.35;3.15;;;0.90;99.90;;;;;;5096740;28;20099;-70
2021/11/29 06:51:39;;;;;;;9.10;3.50;;;0.80;99.90;;;;;;5095447;28;20026;-70
2021/11/29 06:54:07;;;;;;;11.05;3.40;;;0.80;99.90;;;;;;5097058;28;20047;-70
2021/11/29 06:56:34;;;;;;;10.77;3.63;;;0.80;99.90;;;;;;5096498;28;20024;-70
2021/11/29 06:59:02;;;;;;;8.95;4.53;;;0.80;99.90;;;;;;5096688;28;20055;-70
2021/11/29 07:01:30;;;;;;;14.75;4.63;;;0.70;99.90;;;;;;5096560;28;20020;-71
2021/11/29 07:03:58;;;;;;;8.32;3.30;;;0.70;99.90;;;;;;5096986;28;20020;-72
2021/11/29 07:06:26;;;;;;;9.25;3.40;;;0.70;99.90;;;;;;5096657;28;20024;-70
2021/11/29 07:08:54;;;;;;;13.48;3.67;;;0.80;99.90;;;;;;5097341;28;20476;-70
2021/11/29 07:11:22;;;;;;;10.68;4.53;;;0.80;99.90;;;;;;5097209;28;20416;-75
2021/11/29 07:13:50;;;;;;;12.13;3.55;;;0.70;99.90;;;;;;5097265;28;20020;-75
2021/11/29 07:16:19;;;;;;;8.60;4.00;;;0.70;99.90;;;;;;5096060;28;20059;-75
2021/11/29 07:18:46;;;;;;;8.43;4.20;;;0.70;99.90;;;;;;5097648;28;20035;-78
2021/11/29 07:21:14;;;;;;;6.88;3.78;;;0.70;99.90;;;;;;5097064;28;20017;-76
2021/11/29 07:23:41;;;;;;;15.68;4.13;;;0.70;99.90;;;;;;5097597;28;20024;-76
2021/11/29 07:26:09;;;;;;;10.32;3.90;;;0.70;99.90;;;;;;5096470;28;20297;-76
2021/11/29 07:28:37;;;;;;;6.90;3.80;;;0.70;99.90;;;;;;5096659;28;20017;-73
2021/11/29 07:31:04;;;;;;;8.32;3.25;;;0.70;99.90;;;;;;5096172;28;20035;-73
2021/11/29 07:33:32;;;;;;;7.93;3.65;;;0.70;99.90;;;;;;5096489;28;20189;-74
2021/11/29 07:36:00;;;;;;;12.55;4.38;;;0.70;99.90;;;;;;5095120;28;20297;-73
2021/11/29 07:38:28;;;;;;;11.95;4.10;;;0.70;99.90;;;;;;5095107;28;20355;-74
2021/11/29 07:40:56;;;;;;;8.70;4.40;;;0.70;99.90;;;;;;5096637;28;20368;-75
2021/11/29 07:43:23;;;;;;;5.50;3.38;;;0.70;99.90;;;;;;5095975;28;20430;-75
2021/11/29 07:45:50;;;;;;;8.73;4.10;;;0.70;99.90;;;;;;5096209;28;20028;-74
2021/11/29 07:48:19;;;;;;;8.90;4.00;;;0.70;99.90;;;;;;5100220;28;20020;-75
2021/11/29 07:50:46;;;;;;;8.38;4.10;;;0.70;99.90;;;;;;5100647;28;20020;-74
2021/11/29 07:53:14;;;;;;;11.00;4.25;;;0.70;99.90;;;;;;5099467;28;20132;-72
2021/11/29 07:55:41;;;;;;;10.88;3.92;;;0.80;99.90;;;;;;5100599;28;20020;-72
2021/11/29 07:58:09;;;;;;;9.13;3.90;;;0.80;99.90;;;;;;5100967;28;20035;-74
2021/11/29 08:00:37;;;;;;;14.50;4.78;;;0.80;99.90;;;;;;5099150;28;20100;-70
2021/11/29 08:03:06;;;;;;;16.15;7.40;;;0.80;99.90;;;;;;5100970;28;20024;-69
2021/11/29 08:05:35;;;;;;;9.43;4.90;;;0.80;99.90;;;;;;5100090;28;20054;-83
2021/11/29 08:08:06;;;;;;;5.80;3.95;;;0.80;99.90;;;;;;5099618;28;20024;-70
2021/11/29 08:10:36;;;;;;;11.05;4.43;;;0.80;99.90;;;;;;5099955;28;20411;-70
2021/11/29 08:13:07;;;;;;;10.88;4.55;;;0.80;99.90;;;;;;5099364;28;20376;-70
2021/11/29 08:15:37;;;;;;;11.55;4.72;;;0.90;99.90;;;;;;5099209;28;20031;-69
2021/11/29 08:18:09;;;;;;;10.38;4.07;;;0.90;99.90;;;;;;5098317;28;20366;-70
2021/11/29 08:20:36;;;;;;;11.57;4.13;;;0.90;99.90;;;;;;5099222;28;20024;-69
2021/11/29 08:23:04;;;;;;;9.85;3.60;;;1.00;99.90;;;;;;5097907;28;20032;-72
2021/11/29 08:25:32;;;;;;;7.95;3.72;;;1.00;99.90;;;;;;5099848;28;20024;-70
2021/11/29 08:27:59;;;;;;;8.02;4.00;;;1.00;99.90;;;;;;5099044;28;20032;-69
2021/11/29 08:30:27;;;;;;;12.18;4.15;;;1.00;99.90;;;;;;5099388;28;20423;-69
2021/11/29 08:32:55;;;;;;;5.75;3.83;;;1.00;99.90;;;;;;5100200;28;20038;-70
2021/11/29 08:35:23;;;;;;;6.32;3.10;;;1.10;99.90;;;;;;5100145;28;20027;-70
2021/11/29 08:37:54;;;;;;;7.22;3.10;;;1.20;99.90;;;;;;5098734;28;20067;-70
2021/11/29 08:40:28;;;;;;;4.90;3.42;;;1.20;99.90;;;;;;5100064;28;20107;-70
2021/11/29 08:42:58;;;;;;;7.05;3.72;;;1.20;99.90;;;;;;5100255;28;20312;-70
2021/11/29 08:45:25;;;;;;;12.32;4.05;;;1.20;99.90;;;;;;5098860;28;20020;-70
2021/11/29 08:47:55;;;;;;;8.77;3.90;;;1.20;99.90;;;;;;5097764;28;20463;-70
2021/11/29 08:50:23;;;;;;;12.05;3.67;;;1.20;99.90;;;;;;5098651;28;20077;-70
2021/11/29 08:52:51;;;;;;;6.45;3.78;;;1.30;99.90;;;;;;5098519;28;20019;-70
2021/11/29 08:55:19;;;;;;;13.75;4.88;;;1.30;99.90;;;;;;5098869;28;20019;-70
2021/11/29 08:57:46;;;;;;;7.03;3.20;;;1.40;99.90;;;;;;5097981;28;20316;-70
2021/11/29 09:00:18;;;;;;;6.50;3.90;;;1.40;99.90;;;;;;5097730;28;20040;-70
2021/11/29 09:02:47;;;;;;;6.15;3.60;;;1.40;99.90;;;;;;5098873;28;20012;-70
2021/11/29 09:05:18;;;;;;;6.72;4.25;;;1.50;99.90;;;;;;5098972;28;20024;-70
2021/11/29 09:07:46;;;;;;;7.75;3.80;;;1.50;99.90;;;;;;5099265;28;20370;-70
2021/11/29 09:10:14;;;;;;;6.38;3.40;;;1.50;99.90;;;;;;5099815;28;20017;-70
2021/11/29 09:12:42;;;;;;;5.72;3.33;;;1.60;99.90;;;;;;5098893;28;20031;-68
2021/11/29 09:15:14;;;;;;;6.63;3.90;;;1.60;99.90;;;;;;5098938;28;20024;-70
2021/11/29 09:17:41;;;;;;;6.40;2.88;;;1.60;99.90;;;;;;5099197;28;20070;-69
2021/11/29 09:20:11;;;;;;;5.07;2.88;;;1.70;99.90;;;;;;5097854;28;20442;-70
2021/11/29 09:22:40;;;;;;;9.15;3.47;;;1.70;99.90;;;;;;5098590;28;20047;-69
2021/11/29 09:25:09;;;;;;;9.52;3.40;;;1.70;99.90;;;;;;5098463;28;20020;-70
2021/11/29 09:27:37;;;;;;;4.55;2.75;;;1.70;99.90;;;;;;5097881;28;20020;-70
2021/11/29 09:30:07;;;;;;;7.53;3.17;;;1.80;99.90;;;;;;5097973;28;20027;-70
2021/11/29 09:32:38;;;;;;;6.30;4.05;;;1.80;99.90;;;;;;5097696;28;20016;-70
2021/11/29 09:35:13;;;;;;;10.57;3.45;;;1.80;99.90;;;;;;5097699;28;20016;-70
2021/11/29 09:37:42;;;;;;;10.43;4.10;;;1.80;99.90;;;;;;5097874;28;20046;-69
2021/11/29 09:40:21;;;;;;;6.70;3.20;;;1.80;99.90;;;;;;5097677;28;20070;-70
2021/11/29 09:42:49;;;;;;;7.60;4.32;;;1.90;99.90;;;;;;5098005;28;20453;-70
2021/11/29 09:45:17;;;;;;;6.88;3.58;;;2.00;99.90;;;;;;5098500;28;20169;-69
2021/11/29 09:47:45;;;;;;;10.45;4.13;;;2.00;99.90;;;;;;5098973;28;20050;-69
2021/11/29 09:50:13;;;;;;;8.02;3.42;;;2.10;99.90;;;;;;5099094;28;20024;-70
2021/11/29 09:52:41;;;;;;;5.53;2.97;;;2.10;99.90;;;;;;5098780;28;20023;-70
2021/11/29 09:55:11;;;;;;;5.60;2.70;;;2.20;99.90;;;;;;5099100;28;20300;-69
2021/11/29 09:57:41;;;;;;;5.85;3.70;;;2.20;99.90;;;;;;5098550;28;20355;-70
2021/11/29 10:00:17;;;;;;;7.55;3.15;;;2.30;99.90;;;;;;5098412;28;20098;-70
2021/11/29 10:02:45;;;;;;;8.73;5.18;;;2.30;99.90;;;;;;5098114;28;20016;-70
2021/11/29 10:05:14;;;;;;;7.38;3.63;;;2.30;99.90;;;;;;5097157;28;20020;-71
2021/11/29 10:07:47;;;;;;;8.38;3.83;;;2.40;99.90;;;;;;5097143;28;20020;-69
2021/11/29 10:10:24;;;;;;;5.82;2.53;;;2.40;99.90;;;;;;5096615;28;20016;-69
2021/11/29 10:13:03;;;;;;;7.15;3.38;;;2.40;99.90;;;;;;5097605;28;20355;-69
2021/11/29 10:15:35;;;;;;;8.48;4.00;;;2.50;99.90;;;;;;5095851;28;20024;-69
2021/11/29 10:18:12;;;;;;;8.73;3.13;;;2.50;99.90;;;;;;5095790;28;20065;-69
2021/11/29 10:20:56;;;;;;;8.18;3.22;;;2.50;99.90;;;;;;5096996;28;20024;-69
2021/11/29 10:23:39;;;;;;;8.32;4.15;;;2.60;99.90;;;;;;5097435;28;20024;-69
2021/11/29 10:26:21;;;;;;;5.00;2.83;;;2.60;99.90;;;;;;5097732;28;20059;-69
2021/11/29 10:28:56;;;;;;;9.18;2.70;;;2.60;99.90;;;;;;5098304;28;20020;-69
2021/11/29 10:31:38;;;;;;;6.18;3.30;;;2.60;99.90;;;;;;5096529;28;20328;-69
2021/11/29 10:34:12;;;;;;;7.75;3.17;;;2.70;99.90;;;;;;5097874;28;20107;-69
2021/11/29 10:36:45;;;;;;;11.35;4.72;;;2.70;99.90;;;;;;5097993;28;20103;-69
2021/11/29 10:39:16;;;;;;;6.82;3.67;;;2.80;99.90;;;;;;5098184;28;20419;-69
2021/11/29 10:41:51;;;;;;;5.50;2.50;;;2.90;99.90;;;;;;5096996;28;20020;-69
2021/11/29 10:44:25;;;;;;;6.90;3.78;;;2.90;99.90;;;;;;5096757;28;20028;-69
2021/11/29 10:46:59;;;;;;;5.32;3.20;;;3.00;99.90;;;;;;5096638;28;20320;-69
2021/11/29 10:49:30;;;;;;;8.32;5.50;;;3.10;99.90;;;;;;5096544;28;20020;-69
2021/11/29 10:52:01;;;;;;;6.15;3.75;;;3.10;99.90;;;;;;5096388;28;20031;-69
2021/11/29 10:54:31;;;;;;;7.18;3.17;;;3.20;99.90;;;;;;5097248;28;20024;-69
2021/11/29 10:57:00;;;;;;;7.93;3.20;;;3.30;99.90;;;;;;5096567;28;20028;-69
2021/11/29 10:59:31;;;;;;;10.35;3.30;;;3.30;99.90;;;;;;5096379;28;20125;-69
2021/11/29 11:02:02;;;;;;;8.30;3.25;;;3.40;99.90;;;;;;5097055;28;20027;-69
2021/11/29 11:04:32;;;;;;;7.05;3.78;;;3.40;99.90;;;;;;5097292;28;20028;-69
2021/11/29 11:07:20;;;;;;;4.80;3.50;;;3.40;99.90;;;;;;5097216;28;20024;-69
2021/11/29 11:09:54;;;;;;;11.05;3.60;;;3.40;99.90;;;;;;5097333;28;20027;-69
2021/11/29 11:12:27;;;;;;;8.93;3.47;;;3.40;99.90;;;;;;5097237;28;20046;-69
2021/11/29 11:15:02;;;;;;;8.52;3.38;;;3.50;99.90;;;;;;5097837;28;20095;-69
2021/11/29 11:17:32;;;;;;;5.93;3.37;;;3.50;99.90;;;;;;5097295;28;20048;-69
2021/11/29 11:20:04;;;;;;;5.85;3.40;;;3.50;99.90;;;;;;5097397;28;20324;-69
2021/11/29 11:22:38;;;;;;;8.43;3.63;;;3.50;99.90;;;;;;5098582;28;20024;-69
2021/11/29 11:25:09;;;;;;;9.07;3.95;;;3.60;99.90;;;;;;5099210;28;20039;-69
2021/11/29 11:27:45;;;;;;;6.30;3.10;;;3.60;99.90;;;;;;5100150;28;20024;-69
2021/11/29 11:30:15;;;;;;;8.73;4.15;;;3.70;99.90;;;;;;5100956;28;20021;-68
2021/11/29 11:32:59;;;;;;;6.63;3.85;;;3.70;99.90;;;;;;5100017;28;20355;-68
2021/11/29 11:35:33;;;;;;;11.38;6.18;;;3.70;99.90;;;;;;5100358;28;20028;-77
2021/11/29 11:38:16;;;;;;;6.95;4.13;;;3.70;99.90;;;;;;5100164;28;20024;-69
2021/11/29 11:40:46;;;;;;;5.70;3.20;;;3.70;99.90;;;;;;5099901;28;20016;-68
2021/11/29 11:43:16;;;;;;;8.05;3.75;;;3.70;99.90;;;;;;5100014;28;20032;-68
2021/11/29 11:45:46;;;;;;;4.30;2.80;;;3.70;99.90;;;;;;5100776;28;20106;-68
2021/11/29 11:48:16;;;;;;;5.00;3.25;;;3.60;99.90;;;;;;5101538;28;20024;-69
2021/11/29 11:50:48;;;;;;;6.70;3.50;;;3.60;99.90;;;;;;5100909;28;20043;-69
2021/11/29 11:53:15;;;;;;;6.18;3.55;;;3.50;99.90;;;;;;5100652;28;20031;-69
2021/11/29 11:55:46;;;;;;;8.80;3.97;;;3.40;99.90;;;;;;5100630;28;20027;-68
2021/11/29 11:58:22;;;;;;;9.07;3.13;;;3.30;99.90;;;;;;5100661;28;20035;-67
2021/11/29 12:01:10;;;;;;;;;;;3.20;99.90;;;;;;5100777;28;20055;-69
2021/11/29 12:03:41;;;;;;;6.25;3.60;;;3.20;99.90;;;;;;5099417;28;19943;-68
2021/11/29 12:06:18;;;;;;;8.10;3.58;;;3.20;99.90;;;;;;5100137;28;20095;-72
2021/11/29 12:08:59;;;;;;;8.05;3.85;;;3.10;99.90;;;;;;5098494;28;20028;-70
2021/11/29 12:11:27;;;;;;;27.00;9.45;;;3.10;99.90;;;;;;5099918;28;20024;-70
2021/11/29 12:14:19;;;;;;;12.75;6.32;;;3.10;99.90;;;;;;5099643;28;20320;-70
2021/11/29 12:16:48;;;;;;;10.63;6.15;;;3.10;99.90;;;;;;5099246;28;20068;-69
2021/11/29 12:19:33;;;;;;;10.75;5.03;;;3.10;99.90;;;;;;5099994;28;20028;-69
2021/11/29 12:22:33;;;;;;;23.40;15.23;;;3.10;99.90;;;;;;5099030;28;20106;-70
2021/11/29 12:25:16;;;;;;;6.80;3.53;;;3.10;99.90;;;;;;5099938;28;20081;-70
2021/11/29 12:28:04;;;;;;;12.77;8.15;;;3.10;99.90;;;;;;5099752;28;20031;-70
2021/11/29 12:30:43;;;;;;;7.35;4.68;;;3.10;99.90;;;;;;5098842;28;20020;-70
2021/11/29 12:33:14;;;;;;;7.93;4.07;;;3.10;99.90;;;;;;5099721;28;20024;-69
2021/11/29 12:36:00;;;;;;;9.32;3.40;;;3.10;99.90;;;;;;5100369;28;20016;-69
2021/11/29 12:38:45;;;;;;;6.50;4.15;;;3.10;99.90;;;;;;5099700;28;20024;-69
2021/11/29 12:41:12;;;;;;;6.00;3.63;;;3.10;99.90;;;;;;5099652;28;20336;-69
2021/11/29 12:43:46;;;;;;;5.80;3.67;;;3.10;99.90;;;;;;5099459;28;20016;-70
2021/11/29 12:46:39;;;;;;;7.60;3.40;;;3.10;99.90;;;;;;5098626;28;20044;-70
2021/11/29 12:49:08;;;;;;;8.77;4.00;;;3.10;99.90;;;;;;5094599;28;20036;-70
2021/11/29 12:51:54;;;;;;;7.20;3.92;;;3.10;99.90;;;;;;5098074;28;20073;-70
2021/11/29 12:54:39;;;;;;;;;;;3.10;99.90;;;;;;5099687;28;20047;-70
2021/11/29 12:57:19;;;;;;;7.60;5.15;;;3.10;99.90;;;;;;5098770;28;19908;-70
2021/11/29 13:00:10;;;;;;;7.43;3.72;;;3.10;99.90;;;;;;5098557;28;20044;-69
2021/11/29 13:02:50;;;;;;;7.78;4.43;;;3.10;99.90;;;;;;5099186;28;20028;-70
2021/11/29 13:05:27;;;;;;;7.88;3.58;;;3.10;99.90;;;;;;5100164;28;20039;-71
2021/11/29 13:08:19;;;;;;;6.20;3.22;;;3.10;99.90;;;;;;5099226;28;20424;-70